createdAt,value
2018-05-31T00:00:11.986Z,27.72
2018-05-31T00:01:11.947Z,27.77
2018-05-31T00:02:11.908Z,27.81
2018-05-31T00:03:11.868Z,27.72
2018-05-31T00:04:11.829Z,27.79
2018-05-31T00:05:11.790Z,27.72
2018-05-31T00:06:11.751Z,27.70
2018-05-31T00:07:11.711Z,27.75
2018-05-31T00:08:11.673Z,27.75
2018-05-31T00:09:11.634Z,27.70
2018-05-31T00:10:11.594Z,27.79
2018-05-31T00:11:11.555Z,27.63
2018-05-31T00:12:11.517Z,27.74
2018-05-31T00:13:11.480Z,27.66
2018-05-31T00:14:11.442Z,27.77
2018-05-31T00:15:11.403Z,27.70
2018-05-31T00:16:11.361Z,27.67
2018-05-31T00:17:11.325Z,27.67
2018-05-31T00:18:11.285Z,27.70
2018-05-31T00:19:11.245Z,27.67
2018-05-31T00:20:11.204Z,27.66
2018-05-31T00:21:11.167Z,27.70
2018-05-31T00:22:11.127Z,27.65
2018-05-31T00:23:11.088Z,27.62
2018-05-31T00:24:11.048Z,27.67
2018-05-31T00:25:11.060Z,27.66
2018-05-31T00:26:10.971Z,27.63
2018-05-31T00:27:10.931Z,27.60
2018-05-31T00:28:10.892Z,27.66
2018-05-31T00:29:10.854Z,27.63
2018-05-31T00:30:10.818Z,27.65
2018-05-31T00:31:10.774Z,27.69
2018-05-31T00:32:10.738Z,27.62
2018-05-31T00:33:10.697Z,27.62
2018-05-31T00:34:10.658Z,27.60
2018-05-31T00:35:10.618Z,27.60
2018-05-31T00:36:10.580Z,27.62
2018-05-31T00:37:10.540Z,27.63
2018-05-31T00:38:10.501Z,27.54
2018-05-31T00:39:10.462Z,27.65
2018-05-31T00:40:10.423Z,27.60
2018-05-31T00:41:10.383Z,27.67
2018-05-31T00:42:10.345Z,27.65
2018-05-31T00:43:10.305Z,27.57
2018-05-31T00:44:10.267Z,27.50
2018-05-31T00:45:10.227Z,27.51
2018-05-31T00:46:10.188Z,27.63
2018-05-31T00:47:10.151Z,27.51
2018-05-31T00:48:10.110Z,27.57
2018-05-31T00:49:10.071Z,27.55
2018-05-31T00:50:10.032Z,27.54
2018-05-31T00:51:09.994Z,27.50
2018-05-31T00:52:09.953Z,27.57
2018-05-31T00:53:09.914Z,27.57
2018-05-31T00:54:09.876Z,27.54
2018-05-31T00:55:09.836Z,27.49
2018-05-31T00:56:09.797Z,27.60
2018-05-31T00:57:09.758Z,27.54
2018-05-31T00:58:09.719Z,27.51
2018-05-31T00:59:09.679Z,27.51
2018-05-31T01:00:09.640Z,27.59
2018-05-31T01:01:09.604Z,27.55
2018-05-31T01:02:09.563Z,27.47
2018-05-31T01:03:09.522Z,27.50
2018-05-31T01:04:09.484Z,27.49
2018-05-31T01:05:09.445Z,27.49
2018-05-31T01:06:09.405Z,27.49
2018-05-31T01:07:09.366Z,27.50
2018-05-31T01:08:09.327Z,27.49
2018-05-31T01:09:09.288Z,27.47
2018-05-31T01:10:09.253Z,27.47
2018-05-31T01:11:09.209Z,27.51
2018-05-31T01:12:09.174Z,27.49
2018-05-31T01:13:09.131Z,27.40
2018-05-31T01:14:09.092Z,27.37
2018-05-31T01:15:09.052Z,27.32
2018-05-31T01:16:09.020Z,27.37
2018-05-31T01:17:08.974Z,27.36
2018-05-31T01:18:08.935Z,27.37
2018-05-31T01:19:08.895Z,27.37
2018-05-31T01:20:08.856Z,27.39
2018-05-31T01:21:08.817Z,27.39
2018-05-31T01:22:08.778Z,27.44
2018-05-31T01:23:08.739Z,27.34
2018-05-31T01:24:08.700Z,27.40
2018-05-31T01:25:08.663Z,27.44
2018-05-31T01:26:08.622Z,27.39
2018-05-31T01:27:08.582Z,27.44
2018-05-31T01:28:08.542Z,27.41
2018-05-31T01:29:08.509Z,27.40
2018-05-31T01:30:08.474Z,27.41
2018-05-31T01:31:08.424Z,27.34
2018-05-31T01:32:08.466Z,27.40
2018-05-31T01:33:08.346Z,27.39
2018-05-31T01:34:08.307Z,27.44
2018-05-31T01:35:08.267Z,27.43
2018-05-31T01:36:08.236Z,27.40
2018-05-31T01:37:08.190Z,27.41
2018-05-31T01:38:08.154Z,27.40
2018-05-31T01:39:08.110Z,27.40
2018-05-31T01:40:08.071Z,27.34
2018-05-31T01:41:08.032Z,27.37
2018-05-31T01:42:07.993Z,27.34
2018-05-31T01:43:07.953Z,27.43
2018-05-31T01:44:07.914Z,27.44
2018-05-31T01:45:07.874Z,27.40
2018-05-31T01:46:07.836Z,27.41
2018-05-31T01:47:07.798Z,27.43
2018-05-31T01:48:07.764Z,27.40
2018-05-31T01:49:07.717Z,27.37
2018-05-31T01:50:07.679Z,27.39
2018-05-31T01:51:07.639Z,27.43
2018-05-31T01:52:07.600Z,27.40
2018-05-31T01:53:07.562Z,27.41
2018-05-31T01:54:07.521Z,27.36
2018-05-31T01:55:07.482Z,27.40
2018-05-31T01:56:07.443Z,27.32
2018-05-31T01:57:07.406Z,27.34
2018-05-31T01:58:07.367Z,27.31
2018-05-31T01:59:07.324Z,27.32
2018-05-31T02:00:07.286Z,27.31
2018-05-31T02:01:07.246Z,27.25
2018-05-31T02:02:07.208Z,27.40
2018-05-31T02:03:07.167Z,27.40
2018-05-31T02:04:07.127Z,27.27
2018-05-31T02:05:07.091Z,27.36
2018-05-31T02:06:07.050Z,27.31
2018-05-31T02:07:07.009Z,27.37
2018-05-31T02:08:06.972Z,27.28
2018-05-31T02:09:06.932Z,27.29
2018-05-31T02:10:06.892Z,27.32
2018-05-31T02:11:06.854Z,27.32
2018-05-31T02:12:06.813Z,27.31
2018-05-31T02:13:06.775Z,27.31
2018-05-31T02:14:06.735Z,27.28
2018-05-31T02:15:06.695Z,27.27
2018-05-31T02:16:06.656Z,27.25
2018-05-31T02:17:06.616Z,27.29
2018-05-31T02:18:06.582Z,27.27
2018-05-31T02:19:06.537Z,27.29
2018-05-31T02:20:06.499Z,27.32
2018-05-31T02:21:06.459Z,27.28
2018-05-31T02:22:06.420Z,27.28
2018-05-31T02:23:06.387Z,27.31
2018-05-31T02:24:06.341Z,27.31
2018-05-31T02:25:06.302Z,27.25
2018-05-31T02:26:06.263Z,27.31
2018-05-31T02:27:06.230Z,27.32
2018-05-31T02:28:06.183Z,27.31
2018-05-31T02:29:06.144Z,27.34
2018-05-31T02:30:06.105Z,27.29
2018-05-31T02:31:06.065Z,27.29
2018-05-31T02:32:06.026Z,27.31
2018-05-31T02:33:05.987Z,27.34
2018-05-31T02:34:05.947Z,27.29
2018-05-31T02:35:05.907Z,27.36
2018-05-31T02:36:05.875Z,27.34
2018-05-31T02:37:05.828Z,27.28
2018-05-31T02:38:05.789Z,27.25
2018-05-31T02:39:05.748Z,27.22
2018-05-31T02:40:05.711Z,27.21
2018-05-31T02:41:05.671Z,27.25
2018-05-31T02:42:05.632Z,27.21
2018-05-31T02:43:05.594Z,27.24
2018-05-31T02:44:05.553Z,27.24
2018-05-31T02:45:05.518Z,27.21
2018-05-31T02:46:05.474Z,27.25
2018-05-31T02:47:05.434Z,27.27
2018-05-31T02:48:05.395Z,27.19
2018-05-31T02:49:05.355Z,27.24
2018-05-31T02:50:05.316Z,27.25
2018-05-31T02:51:05.276Z,27.18
2018-05-31T02:52:05.237Z,27.24
2018-05-31T02:53:05.197Z,27.18
2018-05-31T02:54:05.159Z,27.25
2018-05-31T02:55:05.117Z,27.28
2018-05-31T02:56:05.081Z,27.18
2018-05-31T02:57:05.043Z,27.24
2018-05-31T02:58:05.000Z,27.27
2018-05-31T02:59:04.961Z,27.25
2018-05-31T03:00:04.921Z,27.25
2018-05-31T03:01:04.884Z,27.25
2018-05-31T03:02:04.842Z,27.25
2018-05-31T03:03:04.802Z,27.19
2018-05-31T03:04:04.763Z,27.18
2018-05-31T03:05:04.727Z,27.14
2018-05-31T03:06:04.684Z,27.21
2018-05-31T03:07:04.644Z,27.17
2018-05-31T03:08:04.605Z,27.13
2018-05-31T03:09:04.567Z,27.18
2018-05-31T03:10:04.527Z,27.21
2018-05-31T03:11:04.486Z,27.10
2018-05-31T03:12:04.449Z,27.14
2018-05-31T03:13:04.408Z,27.22
2018-05-31T03:14:04.369Z,27.22
2018-05-31T03:15:04.328Z,27.17
2018-05-31T03:16:04.289Z,27.12
2018-05-31T03:17:04.250Z,27.19
2018-05-31T03:18:04.211Z,27.19
2018-05-31T03:19:04.170Z,27.14
2018-05-31T03:20:04.186Z,27.13
2018-05-31T03:21:04.092Z,27.18
2018-05-31T03:22:04.053Z,27.13
2018-05-31T03:23:04.015Z,27.17
2018-05-31T03:24:03.973Z,27.13
2018-05-31T03:25:03.934Z,27.24
2018-05-31T03:26:03.898Z,27.13
2018-05-31T03:27:03.854Z,27.10
2018-05-31T03:28:03.815Z,27.13
2018-05-31T03:29:03.776Z,27.12
2018-05-31T03:30:03.788Z,27.14
2018-05-31T03:31:03.697Z,27.13
2018-05-31T03:32:03.658Z,27.13
2018-05-31T03:33:03.618Z,27.12
2018-05-31T03:34:03.578Z,27.07
2018-05-31T03:35:03.540Z,27.14
2018-05-31T03:36:03.499Z,27.14
2018-05-31T03:37:03.466Z,27.14
2018-05-31T03:38:03.420Z,27.17
2018-05-31T03:39:03.380Z,27.10
2018-05-31T03:40:03.340Z,27.13
2018-05-31T03:41:03.301Z,27.24
2018-05-31T03:42:03.262Z,27.14
2018-05-31T03:43:03.221Z,27.10
2018-05-31T03:44:03.182Z,27.13
2018-05-31T03:45:03.146Z,27.14
2018-05-31T03:46:03.104Z,27.14
2018-05-31T03:47:03.063Z,27.10
2018-05-31T03:48:03.074Z,27.14
2018-05-31T03:49:02.985Z,27.14
2018-05-31T03:50:02.945Z,27.06
2018-05-31T03:51:02.905Z,27.14
2018-05-31T03:52:02.866Z,27.25
2018-05-31T03:53:02.827Z,27.22
2018-05-31T03:54:02.788Z,27.14
2018-05-31T03:55:02.746Z,27.17
2018-05-31T03:56:02.708Z,27.27
2018-05-31T03:57:02.669Z,27.25
2018-05-31T03:58:02.628Z,27.19
2018-05-31T03:59:02.589Z,27.14
2018-05-31T04:00:02.549Z,27.22
2018-05-31T04:01:02.510Z,27.28
2018-05-31T04:02:02.472Z,27.27
2018-05-31T04:03:02.430Z,27.28
2018-05-31T04:04:02.391Z,27.25
2018-05-31T04:05:02.351Z,27.17
2018-05-31T04:06:02.311Z,27.29
2018-05-31T04:07:02.275Z,27.28
2018-05-31T04:08:02.232Z,27.22
2018-05-31T04:09:02.193Z,27.13
2018-05-31T04:10:02.157Z,27.25
2018-05-31T04:11:02.113Z,27.14
2018-05-31T04:12:02.074Z,27.28
2018-05-31T04:13:02.059Z,27.21
2018-05-31T04:14:01.997Z,27.24
2018-05-31T04:15:01.955Z,27.14
2018-05-31T04:16:01.915Z,27.22
2018-05-31T04:17:01.878Z,27.24
2018-05-31T04:18:01.840Z,27.22
2018-05-31T04:19:01.796Z,27.24
2018-05-31T04:20:01.759Z,27.17
2018-05-31T04:21:01.720Z,27.24
2018-05-31T04:22:01.678Z,27.19
2018-05-31T04:23:01.640Z,27.25
2018-05-31T04:24:01.598Z,27.21
2018-05-31T04:25:01.560Z,27.18
2018-05-31T04:26:01.520Z,27.22
2018-05-31T04:27:01.479Z,27.18
2018-05-31T04:28:01.444Z,27.22
2018-05-31T04:29:01.401Z,27.29
2018-05-31T04:30:01.361Z,27.28
2018-05-31T04:31:01.324Z,27.24
2018-05-31T04:32:01.281Z,27.22
2018-05-31T04:33:01.244Z,27.31
2018-05-31T04:34:01.206Z,27.32
2018-05-31T04:35:01.171Z,27.29
2018-05-31T04:36:01.124Z,27.29
2018-05-31T04:37:01.083Z,27.34
2018-05-31T04:38:01.044Z,27.31
2018-05-31T04:39:01.004Z,27.43
2018-05-31T04:40:00.966Z,27.37
2018-05-31T04:41:00.925Z,27.47
2018-05-31T04:42:00.986Z,27.55
2018-05-31T04:43:00.852Z,27.51
2018-05-31T04:44:00.806Z,27.60
2018-05-31T04:45:00.767Z,27.66
2018-05-31T04:46:00.731Z,27.79
2018-05-31T04:47:00.687Z,27.74
2018-05-31T04:48:00.649Z,27.82
2018-05-31T04:49:00.608Z,27.79
2018-05-31T04:50:00.572Z,27.90
2018-05-31T04:51:00.528Z,27.90
2018-05-31T04:52:00.492Z,27.97
2018-05-31T04:53:00.449Z,27.99
2018-05-31T04:54:00.411Z,28.04
2018-05-31T04:55:00.370Z,28.06
2018-05-31T04:56:00.334Z,28.04
2018-05-31T04:57:00.291Z,28.06
2018-05-31T04:58:00.252Z,28.14
2018-05-31T04:59:00.211Z,28.19
2018-05-31T05:00:00.172Z,28.24
2018-05-31T05:01:00.133Z,28.19
2018-05-31T05:02:00.093Z,28.25
2018-05-31T05:03:00.066Z,28.31
2018-05-31T05:04:00.014Z,28.40
2018-05-31T05:04:59.978Z,28.27
2018-05-31T05:05:59.936Z,28.27
2018-05-31T05:06:59.895Z,28.31
2018-05-31T05:07:59.855Z,28.37
2018-05-31T05:08:59.839Z,28.43
2018-05-31T05:09:59.777Z,28.44
2018-05-31T05:10:59.736Z,28.49
2018-05-31T05:11:59.697Z,28.51
2018-05-31T05:12:59.658Z,28.52
2018-05-31T05:13:59.620Z,28.49
2018-05-31T05:14:59.579Z,28.59
2018-05-31T05:15:59.539Z,28.61
2018-05-31T05:16:59.503Z,28.64
2018-05-31T05:17:59.472Z,28.61
2018-05-31T05:18:59.420Z,28.67
2018-05-31T05:19:59.381Z,28.68
2018-05-31T05:20:59.342Z,28.71
2018-05-31T05:21:59.306Z,28.78
2018-05-31T05:22:59.262Z,28.80
2018-05-31T05:23:59.223Z,28.81
2018-05-31T05:24:59.187Z,28.86
2018-05-31T05:25:59.145Z,28.80
2018-05-31T05:26:59.104Z,28.83
2018-05-31T05:27:59.065Z,28.85
2018-05-31T05:28:59.026Z,28.83
2018-05-31T05:29:58.987Z,28.96
2018-05-31T05:30:58.953Z,28.86
2018-05-31T05:31:58.910Z,28.92
2018-05-31T05:32:58.869Z,28.93
2018-05-31T05:33:58.829Z,28.95
2018-05-31T05:34:58.789Z,29.00
2018-05-31T05:35:58.750Z,29.05
2018-05-31T05:36:58.711Z,29.06
2018-05-31T05:37:58.671Z,29.06
2018-05-31T05:38:58.631Z,29.15
2018-05-31T05:39:58.594Z,29.14
2018-05-31T05:40:58.553Z,29.12
2018-05-31T05:41:58.514Z,29.15
2018-05-31T05:42:58.475Z,29.18
2018-05-31T05:43:58.436Z,29.23
2018-05-31T05:44:58.396Z,29.19
2018-05-31T05:45:58.358Z,29.28
2018-05-31T05:46:58.317Z,29.28
2018-05-31T05:47:58.278Z,29.34
2018-05-31T05:48:58.240Z,29.24
2018-05-31T05:49:58.250Z,29.28
2018-05-31T05:50:58.160Z,29.27
2018-05-31T05:51:58.170Z,29.37
2018-05-31T05:52:58.081Z,29.42
2018-05-31T05:53:58.042Z,29.39
2018-05-31T05:54:58.003Z,29.41
2018-05-31T05:55:57.966Z,29.43
2018-05-31T05:56:57.925Z,29.45
2018-05-31T05:57:57.885Z,29.52
2018-05-31T05:58:57.845Z,29.53
2018-05-31T05:59:57.812Z,29.58
2018-05-31T06:00:57.767Z,29.57
2018-05-31T06:01:57.805Z,29.58
2018-05-31T06:02:57.689Z,29.52
2018-05-31T06:03:57.651Z,29.63
2018-05-31T06:04:57.610Z,29.65
2018-05-31T06:05:57.572Z,29.55
2018-05-31T06:06:57.531Z,29.58
2018-05-31T06:07:57.503Z,29.55
2018-05-31T06:08:57.454Z,29.64
2018-05-31T06:09:57.469Z,29.83
2018-05-31T06:10:57.375Z,29.95
2018-05-31T06:11:57.336Z,30.01
2018-05-31T06:12:57.297Z,30.19
2018-05-31T06:13:57.260Z,30.27
2018-05-31T06:14:57.220Z,30.23
2018-05-31T06:15:57.184Z,30.29
2018-05-31T06:16:57.148Z,30.34
2018-05-31T06:17:57.107Z,30.51
2018-05-31T06:18:57.624Z,30.47
2018-05-31T06:19:57.029Z,30.49
2018-05-31T06:20:56.992Z,30.65
2018-05-31T06:21:56.988Z,30.55
2018-05-31T06:22:56.916Z,30.60
2018-05-31T06:23:56.878Z,30.67
2018-05-31T06:24:56.842Z,30.57
2018-05-31T06:25:56.804Z,30.61
2018-05-31T06:26:56.767Z,30.61
2018-05-31T06:27:56.730Z,30.62
2018-05-31T06:28:56.692Z,30.73
2018-05-31T06:29:56.656Z,30.65
2018-05-31T06:30:56.619Z,30.72
2018-05-31T06:31:56.581Z,30.77
2018-05-31T06:32:56.547Z,30.73
2018-05-31T06:33:56.506Z,30.72
2018-05-31T06:34:56.469Z,30.76
2018-05-31T06:35:56.482Z,30.80
2018-05-31T06:36:56.396Z,30.92
2018-05-31T06:37:56.360Z,30.88
2018-05-31T06:38:56.323Z,30.99
2018-05-31T06:39:56.285Z,31.10
2018-05-31T06:40:56.249Z,31.10
2018-05-31T06:41:56.211Z,31.04
2018-05-31T06:42:56.190Z,30.99
2018-05-31T06:43:56.138Z,30.94
2018-05-31T06:44:56.102Z,30.94
2018-05-31T06:45:56.069Z,30.92
2018-05-31T06:46:56.029Z,30.88
2018-05-31T06:47:55.993Z,30.95
2018-05-31T06:48:55.956Z,30.91
2018-05-31T06:49:55.920Z,30.97
2018-05-31T06:50:55.882Z,31.01
2018-05-31T06:51:55.848Z,31.07
2018-05-31T06:52:55.813Z,31.01
2018-05-31T06:53:55.776Z,31.06
2018-05-31T06:54:55.738Z,31.06
2018-05-31T06:55:55.705Z,31.13
2018-05-31T06:56:55.668Z,31.13
2018-05-31T06:57:55.632Z,31.14
2018-05-31T06:58:55.606Z,31.16
2018-05-31T06:59:55.560Z,31.23
2018-05-31T07:00:55.596Z,31.25
2018-05-31T07:01:55.489Z,31.36
2018-05-31T07:02:55.452Z,31.38
2018-05-31T07:03:55.416Z,31.50
2018-05-31T07:04:55.382Z,31.54
2018-05-31T07:05:55.355Z,31.66
2018-05-31T07:06:55.318Z,31.73
2018-05-31T07:07:55.277Z,31.84
2018-05-31T07:08:55.237Z,32.00
2018-05-31T07:09:55.204Z,32.11
2018-05-31T07:10:55.166Z,32.30
2018-05-31T07:11:55.130Z,32.47
2018-05-31T07:12:55.095Z,32.48
2018-05-31T07:13:55.059Z,32.65
2018-05-31T07:14:55.022Z,32.69
2018-05-31T07:15:55.054Z,32.75
2018-05-31T07:16:54.950Z,32.72
2018-05-31T07:17:54.914Z,32.70
2018-05-31T07:18:54.877Z,32.82
2018-05-31T07:19:54.845Z,32.81
2018-05-31T07:20:54.805Z,32.81
2018-05-31T07:21:54.767Z,32.84
2018-05-31T07:22:54.730Z,32.96
2018-05-31T07:23:54.696Z,33.00
2018-05-31T07:24:54.659Z,33.03
2018-05-31T07:25:54.629Z,33.03
2018-05-31T07:26:54.585Z,33.03
2018-05-31T07:27:54.551Z,33.16
2018-05-31T07:28:54.513Z,33.11
2018-05-31T07:29:54.482Z,33.15
2018-05-31T07:30:54.440Z,33.19
2018-05-31T07:31:54.408Z,33.22
2018-05-31T07:32:54.368Z,33.38
2018-05-31T07:33:54.333Z,33.31
2018-05-31T07:34:54.295Z,33.38
2018-05-31T07:35:54.258Z,33.54
2018-05-31T07:36:54.222Z,33.53
2018-05-31T07:37:54.184Z,33.60
2018-05-31T07:38:54.149Z,33.66
2018-05-31T07:39:54.111Z,33.66
2018-05-31T07:40:54.075Z,33.73
2018-05-31T07:41:54.040Z,33.82
2018-05-31T07:42:54.003Z,33.88
2018-05-31T07:43:53.966Z,33.91
2018-05-31T07:44:53.931Z,33.93
2018-05-31T07:45:53.896Z,34.08
2018-05-31T07:46:53.858Z,33.97
2018-05-31T07:47:53.822Z,34.05
2018-05-31T07:48:53.787Z,34.09
2018-05-31T07:49:53.749Z,34.16
2018-05-31T07:50:53.714Z,34.24
2018-05-31T07:51:53.678Z,34.32
2018-05-31T07:52:53.642Z,34.28
2018-05-31T07:53:53.607Z,34.34
2018-05-31T07:54:53.571Z,34.32
2018-05-31T07:55:53.534Z,34.46
2018-05-31T07:56:53.499Z,34.42
2018-05-31T07:57:53.463Z,34.58
2018-05-31T07:58:53.477Z,34.50
2018-05-31T07:59:53.391Z,34.61
2018-05-31T08:00:53.356Z,34.53
2018-05-31T08:01:53.321Z,34.62
2018-05-31T08:02:53.283Z,34.64
2018-05-31T08:03:53.250Z,34.75
2018-05-31T08:04:53.214Z,34.80
2018-05-31T08:05:53.198Z,34.89
2018-05-31T08:06:53.140Z,34.89
2018-05-31T08:07:53.107Z,34.97
2018-05-31T08:08:53.071Z,35.02
2018-05-31T08:09:53.043Z,35.07
2018-05-31T08:10:53.001Z,35.06
2018-05-31T08:11:52.964Z,35.19
2018-05-31T08:12:52.932Z,35.18
2018-05-31T08:13:52.894Z,35.29
2018-05-31T08:14:52.859Z,35.26
2018-05-31T08:15:52.823Z,35.34
2018-05-31T08:16:52.788Z,35.31
2018-05-31T08:17:52.753Z,35.38
2018-05-31T08:18:52.717Z,35.47
2018-05-31T08:19:52.683Z,35.45
2018-05-31T08:20:52.647Z,35.56
2018-05-31T08:21:52.613Z,35.60
2018-05-31T08:22:52.577Z,35.63
2018-05-31T08:23:52.546Z,35.68
2018-05-31T08:24:52.507Z,35.84
2018-05-31T08:25:52.472Z,35.77
2018-05-31T08:26:52.437Z,35.82
2018-05-31T08:27:52.402Z,35.81
2018-05-31T08:28:52.374Z,35.94
2018-05-31T08:29:52.334Z,35.96
2018-05-31T08:30:52.297Z,36.09
2018-05-31T08:31:52.263Z,36.03
2018-05-31T08:32:52.228Z,36.20
2018-05-31T08:33:52.194Z,36.15
2018-05-31T08:34:52.158Z,36.03
2018-05-31T08:35:52.127Z,36.20
2018-05-31T08:36:52.090Z,36.31
2018-05-31T08:37:52.055Z,36.31
2018-05-31T08:38:52.074Z,36.27
2018-05-31T08:39:51.985Z,36.34
2018-05-31T08:40:51.951Z,36.43
2018-05-31T08:41:51.918Z,36.57
2018-05-31T08:42:51.882Z,36.64
2018-05-31T08:43:51.848Z,36.65
2018-05-31T08:44:51.814Z,36.80
2018-05-31T08:45:51.780Z,36.76
2018-05-31T08:46:51.745Z,36.95
2018-05-31T08:47:51.711Z,36.90
2018-05-31T08:48:51.683Z,36.78
2018-05-31T08:49:51.645Z,36.84
2018-05-31T08:50:51.608Z,36.88
2018-05-31T08:51:51.574Z,36.73
2018-05-31T08:52:51.541Z,36.98
2018-05-31T08:53:51.507Z,36.91
2018-05-31T08:54:51.472Z,36.91
2018-05-31T08:55:51.439Z,36.94
2018-05-31T08:56:51.405Z,37.00
2018-05-31T08:57:51.373Z,36.78
2018-05-31T08:58:51.337Z,36.83
2018-05-31T08:59:51.309Z,36.66
2018-05-31T09:00:51.269Z,36.72
2018-05-31T09:01:51.235Z,36.65
2018-05-31T09:02:51.204Z,36.80
2018-05-31T09:03:51.171Z,36.80
2018-05-31T09:04:51.134Z,36.59
2018-05-31T09:05:51.103Z,36.65
2018-05-31T09:06:51.067Z,36.73
2018-05-31T09:07:51.033Z,36.69
2018-05-31T09:08:50.999Z,36.83
2018-05-31T09:09:50.968Z,36.71
2018-05-31T09:10:50.937Z,36.73
2018-05-31T09:11:50.897Z,36.75
2018-05-31T09:12:50.866Z,36.80
2018-05-31T09:13:50.831Z,36.78
2018-05-31T09:14:50.801Z,36.81
2018-05-31T09:15:50.769Z,36.78
2018-05-31T09:16:50.741Z,36.81
2018-05-31T09:17:50.697Z,36.80
2018-05-31T09:18:50.664Z,36.75
2018-05-31T09:19:50.631Z,36.76
2018-05-31T09:20:50.596Z,36.65
2018-05-31T09:21:50.564Z,36.68
2018-05-31T09:22:50.530Z,36.71
2018-05-31T09:23:50.497Z,36.65
2018-05-31T09:24:50.469Z,36.59
2018-05-31T09:25:50.437Z,36.56
2018-05-31T09:26:50.397Z,36.47
2018-05-31T09:27:50.366Z,36.37
2018-05-31T09:28:50.330Z,36.43
2018-05-31T09:29:50.297Z,36.29
2018-05-31T09:30:50.264Z,36.25
2018-05-31T09:34:50.130Z,35.71
2018-05-31T09:35:50.097Z,35.60
2018-05-31T09:36:50.064Z,35.47
2018-05-31T09:37:50.031Z,35.22
2018-05-31T09:38:49.996Z,35.09
2018-05-31T09:39:49.964Z,35.02
2018-05-31T09:40:49.933Z,34.78
2018-05-31T09:41:49.898Z,34.49
2018-05-31T09:42:49.862Z,34.54
2018-05-31T09:43:49.830Z,34.39
2018-05-31T09:44:49.797Z,34.19
2018-05-31T09:45:49.768Z,33.98
2018-05-31T09:46:49.728Z,33.90
2018-05-31T09:47:49.694Z,33.82
2018-05-31T09:48:49.661Z,33.73
2018-05-31T09:49:49.629Z,33.68
2018-05-31T09:50:49.591Z,33.57
2018-05-31T09:51:49.556Z,33.50
2018-05-31T09:52:49.522Z,33.39
2018-05-31T09:53:49.487Z,33.32
2018-05-31T09:54:49.451Z,33.18
2018-05-31T09:55:49.415Z,33.07
2018-05-31T09:56:49.381Z,33.12
2018-05-31T09:57:49.345Z,33.04
2018-05-31T09:58:49.309Z,33.03
2018-05-31T09:59:49.273Z,32.94
2018-05-31T10:00:49.259Z,32.88
2018-05-31T10:01:49.241Z,32.92
2018-05-31T10:02:49.166Z,32.81
2018-05-31T10:03:49.135Z,32.82
2018-05-31T10:04:49.095Z,32.70
2018-05-31T10:05:49.060Z,32.75
2018-05-31T10:06:49.024Z,32.66
2018-05-31T10:07:48.987Z,32.65
2018-05-31T10:08:48.951Z,32.69
2018-05-31T10:09:48.916Z,32.65
2018-05-31T10:10:48.878Z,32.57
2018-05-31T10:11:48.843Z,32.59
2018-05-31T10:12:48.807Z,32.62
2018-05-31T10:13:48.770Z,32.51
2018-05-31T10:14:48.733Z,32.62
2018-05-31T10:15:48.696Z,32.52
2018-05-31T10:16:48.660Z,32.51
2018-05-31T10:17:48.624Z,32.48
2018-05-31T10:18:48.588Z,32.43
2018-05-31T10:19:48.551Z,32.41
2018-05-31T10:20:48.521Z,32.38
2018-05-31T10:21:48.480Z,32.37
2018-05-31T10:22:48.441Z,32.26
2018-05-31T10:23:48.404Z,32.32
2018-05-31T10:24:48.366Z,32.29
2018-05-31T10:25:48.331Z,32.28
2018-05-31T10:26:48.294Z,32.29
2018-05-31T10:27:48.257Z,32.26
2018-05-31T10:28:48.220Z,32.19
2018-05-31T10:29:48.183Z,32.18
2018-05-31T10:30:48.149Z,32.15
2018-05-31T10:31:48.110Z,32.13
2018-05-31T10:32:48.072Z,32.10
2018-05-31T10:33:48.037Z,32.04
2018-05-31T10:34:47.999Z,32.07
2018-05-31T10:35:47.962Z,32.00
2018-05-31T10:36:47.926Z,31.93
2018-05-31T10:37:47.888Z,31.95
2018-05-31T10:38:47.852Z,31.95
2018-05-31T10:39:47.818Z,32.00
2018-05-31T10:40:47.777Z,31.99
2018-05-31T10:41:47.741Z,31.93
2018-05-31T10:42:47.703Z,31.96
2018-05-31T10:43:47.666Z,31.99
2018-05-31T10:44:47.629Z,31.89
2018-05-31T10:45:47.595Z,31.88
2018-05-31T10:46:47.561Z,31.85
2018-05-31T10:47:47.518Z,31.92
2018-05-31T10:48:47.481Z,31.88
2018-05-31T10:49:47.445Z,31.80
2018-05-31T10:50:47.407Z,31.85
2018-05-31T10:51:47.370Z,31.75
2018-05-31T10:52:47.333Z,31.81
2018-05-31T10:53:47.350Z,31.68
2018-05-31T10:54:47.259Z,31.76
2018-05-31T10:55:47.225Z,31.80
2018-05-31T10:56:47.184Z,31.76
2018-05-31T10:57:47.151Z,31.68
2018-05-31T10:58:47.109Z,31.73
2018-05-31T10:59:47.072Z,31.73
2018-05-31T11:00:47.035Z,31.76
2018-05-31T11:01:46.999Z,31.70
2018-05-31T11:02:46.961Z,31.66
2018-05-31T11:03:46.928Z,31.72
2018-05-31T11:04:46.887Z,31.72
2018-05-31T11:05:46.853Z,31.63
2018-05-31T11:06:46.831Z,31.72
2018-05-31T11:07:46.779Z,31.63
2018-05-31T11:08:46.737Z,31.57
2018-05-31T11:09:46.706Z,31.61
2018-05-31T11:10:46.662Z,31.56
2018-05-31T11:11:46.626Z,31.51
2018-05-31T11:12:46.589Z,31.56
2018-05-31T11:13:46.552Z,31.51
2018-05-31T11:14:46.514Z,31.48
2018-05-31T11:15:46.483Z,31.47
2018-05-31T11:16:46.440Z,31.48
2018-05-31T11:17:46.402Z,31.44
2018-05-31T11:18:46.364Z,31.50
2018-05-31T11:19:46.334Z,31.46
2018-05-31T11:20:46.290Z,31.41
2018-05-31T11:21:46.282Z,31.51
2018-05-31T11:22:46.215Z,31.44
2018-05-31T11:23:46.178Z,31.43
2018-05-31T11:24:46.142Z,31.36
2018-05-31T11:25:46.104Z,31.38
2018-05-31T11:26:46.066Z,31.34
2018-05-31T11:27:46.029Z,31.34
2018-05-31T11:28:45.992Z,31.43
2018-05-31T11:29:45.956Z,31.38
2018-05-31T11:30:45.917Z,31.32
2018-05-31T11:31:45.879Z,31.31
2018-05-31T11:32:45.843Z,31.29
2018-05-31T11:33:45.804Z,31.28
2018-05-31T11:34:45.776Z,31.28
2018-05-31T11:35:45.732Z,31.28
2018-05-31T11:36:45.693Z,31.26
2018-05-31T11:37:45.656Z,31.21
2018-05-31T11:38:45.666Z,31.17
2018-05-31T11:39:45.630Z,31.28
2018-05-31T11:40:45.543Z,31.19
2018-05-31T11:41:45.505Z,31.28
2018-05-31T11:42:45.475Z,31.21
2018-05-31T11:43:45.431Z,31.21
2018-05-31T11:44:45.394Z,31.16
2018-05-31T11:45:45.357Z,31.12
2018-05-31T11:46:45.318Z,31.19
2018-05-31T11:47:45.281Z,31.19
2018-05-31T11:48:45.244Z,31.12
2018-05-31T11:49:45.207Z,31.20
2018-05-31T11:50:45.169Z,31.14
2018-05-31T11:51:45.132Z,31.25
2018-05-31T11:52:45.095Z,31.17
2018-05-31T11:53:45.057Z,31.17
2018-05-31T11:54:45.019Z,31.16
2018-05-31T11:55:44.981Z,31.19
2018-05-31T11:56:44.947Z,31.21
2018-05-31T11:57:44.907Z,31.20
2018-05-31T11:58:44.869Z,31.14
2018-05-31T11:59:44.831Z,31.10
2018-05-31T12:00:44.794Z,31.16
2018-05-31T12:01:44.772Z,31.02
2018-05-31T12:02:44.719Z,31.04
2018-05-31T12:03:44.731Z,31.04
2018-05-31T12:04:44.647Z,31.06
2018-05-31T12:05:44.614Z,30.99
2018-05-31T12:06:44.569Z,31.09
2018-05-31T12:07:44.531Z,31.10
2018-05-31T12:08:44.494Z,31.07
2018-05-31T12:09:44.457Z,30.99
2018-05-31T12:10:44.460Z,31.09
2018-05-31T12:11:44.381Z,31.09
2018-05-31T12:12:44.394Z,31.02
2018-05-31T12:13:44.309Z,31.06
2018-05-31T12:14:44.268Z,31.06
2018-05-31T12:15:44.231Z,31.04
2018-05-31T12:16:44.194Z,31.09
2018-05-31T12:17:44.156Z,31.06
2018-05-31T12:18:44.118Z,31.02
2018-05-31T12:19:44.083Z,31.07
2018-05-31T12:20:44.043Z,31.04
2018-05-31T12:21:44.006Z,31.01
2018-05-31T12:22:43.972Z,31.07
2018-05-31T12:23:43.931Z,31.02
2018-05-31T12:24:43.893Z,30.98
2018-05-31T12:25:43.856Z,30.98
2018-05-31T12:26:43.817Z,30.94
2018-05-31T12:27:43.780Z,30.92
2018-05-31T12:28:43.743Z,31.01
2018-05-31T12:29:43.706Z,30.89
2018-05-31T12:30:43.667Z,30.91
2018-05-31T12:31:43.629Z,30.94
2018-05-31T12:32:43.593Z,30.91
2018-05-31T12:33:43.555Z,30.99
2018-05-31T12:34:43.516Z,31.01
2018-05-31T12:35:43.481Z,30.94
2018-05-31T12:36:43.444Z,31.01
2018-05-31T12:37:43.422Z,31.01
2018-05-31T12:38:43.367Z,30.99
2018-05-31T12:39:43.335Z,30.94
2018-05-31T12:40:43.292Z,30.94
2018-05-31T12:41:43.254Z,30.94
2018-05-31T12:42:43.215Z,30.95
2018-05-31T12:43:43.179Z,30.89
2018-05-31T12:44:43.146Z,30.88
2018-05-31T12:45:43.109Z,30.82
2018-05-31T12:46:43.065Z,30.80
2018-05-31T12:47:43.028Z,30.82
2018-05-31T12:48:42.991Z,30.88
2018-05-31T12:49:42.954Z,30.88
2018-05-31T12:50:42.923Z,30.77
2018-05-31T12:51:42.879Z,30.83
2018-05-31T12:52:42.841Z,30.88
2018-05-31T12:53:42.839Z,30.82
2018-05-31T12:54:42.765Z,30.89